MMLM

Valle del Fuerte International Airport

Los Mochis, Mexico
TAF MMLM 211629Z 2118/2218 18005KT P6SM SKC BECMG 2120/2121 23012KT FM220100 25005KT P6SM SCT250 BECMG 2205/2206 00000KT FM221000 33006KT 6SM HZ BKN220 TEMPO 2211/2215 3SM BR HZ SCT015
Issued Valid From Valid To
Jan-21 @ 16:29 UTC
(8 hours ago)
Jan-21 @ 18:00 UTC
(7 hours ago)
Jan-22 @ 18:00 UTC
(in 17 hours)
Expired Click to View Jan-21 @ 18:00 to Jan-21 @ 20:00
TAF MMLM 211629Z 2118/2218 18005KT P6SM SKC
Wind Visibility Clouds
180° at 5 knots Greater than 6 miles
  • Clear skies
Becoming Jan-21 @ 20:00 to Jan-22 @ 01:00
BECMG 2120/2121 23012KT
Wind Visibility Clouds
230° at 12 knots Greater than 6 miles
  • Clear skies
From Jan-22 @ 01:00 to Jan-22 @ 05:00
FM220100 25005KT P6SM SCT250
Wind Visibility Clouds
250° at 5 knots Greater than 6 miles
  • Scattered at 25,000' AGL
Becoming Jan-22 @ 05:00 to Jan-22 @ 10:00
BECMG 2205/2206 00000KT
Visibility Clouds
Greater than 6 miles
  • Scattered at 25,000' AGL
From Jan-22 @ 10:00 to Jan-22 @ 18:00
FM221000 33006KT 6SM HZ BKN220
Wind Visibility Clouds Conditions
330° at 6 knots 6 miles
  • Broken at 22,000' AGL
  • Haze
Temporary Jan-22 @ 11:00 to Jan-22 @ 15:00
TEMPO 2211/2215 3SM BR HZ SCT015
Visibility Clouds Conditions
3 miles
  • Scattered at 1,500' AGL
  • Mist
  • Haze
TAF MMLM 211629Z 2118/2218 18005KT P6SM SKC BECMG 2120/2121 23012KT FM220100 25005KT P6SM SCT250 BECMG 2205/2206 00000KT FM221000 33006KT 6SM HZ BKN220 TEMPO 2211/2215 3SM BR HZ SCT015
Issued Jan-21 @ 16:29 UTC
(8 hours ago)
Valid From Jan-21 @ 18:00 UTC
(7 hours ago)
Valid To Jan-22 @ 18:00 UTC
(in 17 hours)
Jan-21 @ 18:00 - Jan-21 @ 20:00
Wind Visibility
180° at 5 knots Greater than 6 miles
Clouds
  • Clear skies
Becoming Jan-21 @ 20:00 - Jan-22 @ 01:00
Wind Visibility
230° at 12 knots Greater than 6 miles
Clouds
  • Clear skies
From Jan-22 @ 01:00 - Jan-22 @ 05:00
Wind Visibility
250° at 5 knots Greater than 6 miles
Clouds
  • Scattered at 25,000' AGL
Becoming Jan-22 @ 05:00 - Jan-22 @ 10:00
Clouds
  • Scattered at 25,000' AGL
From Jan-22 @ 10:00 - Jan-22 @ 18:00
Wind Visibility
330° at 6 knots 6 miles
Clouds
  • Broken at 22,000' AGL
Conditions
  • Haze
Temporary Jan-22 @ 11:00 - Jan-22 @ 15:00
Clouds
  • Scattered at 1,500' AGL
Conditions
  • Mist
  • Haze